Dades meteomassalio
Diari Summary for Febrer 11, 2018 Units:  Metric    English   Both
« Previous Day
Next Day »
Diari Semanal Mensual Anual Personalitzat
  Maxima: Minima: Mijana:
Temperatura: -17.8 °C -17.8 °C -12.4 °C
Rosada: -17.8 °C -19.1 °C -15.2 °C
Humitat: Humidity % 57 % 72 %
Velocitat del vent: 0 km/h 0 km/h 29.1 km/h
Racha vent: 0 km/h - -
Vent:- - NW
Pressio: 0 hPa 34486.4 hPa -
Pluja: 0 mm    
Historical Graphs
 
 
Tabular Data for Febrer 11, 2018
Time Temperature Dew Point Pressure Wind Wind Speed Wind Gust Humidity Rainfall Rate (Hourly) solar Conditions
-17.8 °C -17.8 °C 0 hPa Calm     Humidity % 0 mm SolarRadiationWatts/m^2 W/m2 Conditions
00:04 -15.6 °C -17.3 °C 34635.4 hPa WNW 29.8 km/h 29.8 km/h 80 % 0 mm 0.0 W/m2 CLR
00:09 -15.6 °C -17.3 °C 34635.4 hPa WNW 29.8 km/h 29.8 km/h 80 % 0 mm 0.0 W/m2 CLR
00:14 -15.6 °C -17.3 °C 34635.4 hPa WNW 20.9 km/h 20.9 km/h 80 % 0 mm 0.0 W/m2 CLR
00:19 -15.6 °C -17.3 °C 34635.4 hPa WNW 23.8 km/h 23.8 km/h 80 % 0 mm 0.0 W/m2 CLR
00:24 -15.9 °C -17.7 °C 34635.4 hPa NW 23.8 km/h 23.8 km/h 80 % 0 mm 0.0 W/m2 CLR
00:29 -15.9 °C -17.7 °C 34645.6 hPa WNW 17.9 km/h 17.9 km/h 80 % 0 mm 0.0 W/m2 CLR
00:34 -15.9 °C -17.6 °C 34645.6 hPa West 17.9 km/h 17.9 km/h 81 % 0 mm 0.0 W/m2 CLR
00:39 -15.9 °C -17.6 °C 34645.6 hPa West 11.9 km/h 11.9 km/h 81 % 0 mm 0.0 W/m2 CLR
00:44 -16.2 °C -17.9 °C 34635.4 hPa WNW 15 km/h 15 km/h 81 % 0 mm 0.0 W/m2 CLR
00:49 -16.2 °C -17.8 °C 34635.4 hPa WNW 17.9 km/h 17.9 km/h 82 % 0 mm 0.0 W/m2 CLR
00:54 -16.6 °C -18.1 °C 34635.4 hPa WNW 10.3 km/h 10.3 km/h 82 % 0 mm 0.0 W/m2 CLR
00:59 -16.6 °C -18 °C 34645.6 hPa West 17.9 km/h 17.9 km/h 83 % 0 mm 0.0 W/m2 CLR
01:04 -16.6 °C -18 °C 34635.4 hPa West 11.9 km/h 11.9 km/h 83 % 0 mm 0.0 W/m2 CLR
01:09 -16.6 °C -18 °C 34635.4 hPa West 11.9 km/h 11.9 km/h 83 % 0 mm 0.0 W/m2 CLR
01:14 -16.8 °C -18.3 °C 34635.4 hPa West 9 km/h 9 km/h 83 % 0 mm 0.0 W/m2 CLR
01:19 -16.8 °C -18.3 °C 34635.4 hPa WNW 15 km/h 15 km/h 83 % 0 mm 0.0 W/m2 CLR
01:24 -17.2 °C -18.6 °C 34635.4 hPa West 9 km/h 9 km/h 83 % 0 mm 0.0 W/m2 CLR
01:29 -17.2 °C -18.5 °C 34635.4 hPa West 17.9 km/h 17.9 km/h 84 % 0 mm 0.0 W/m2 CLR
01:34 -17.2 °C -18.5 °C 34635.4 hPa WNW 15 km/h 15 km/h 84 % 0 mm 0.0 W/m2 CLR
01:39 -17.4 °C -18.8 °C 34635.4 hPa WNW 18.2 km/h 18.2 km/h 84 % 0 mm 0.0 W/m2 CLR
01:44 -17.4 °C -18.8 °C 34625.2 hPa West 17.9 km/h 17.9 km/h 84 % 0 mm 0.0 W/m2 CLR
01:49 -17.8 °C -19.1 °C 34625.2 hPa West 20.9 km/h 20.9 km/h 84 % 0 mm 0.0 W/m2 CLR
01:54 -17.8 °C -19.1 °C 34625.2 hPa West 26.9 km/h 26.9 km/h 84 % 0 mm 0.0 W/m2 CLR
01:59 -17.8 °C -19.1 °C 34625.2 hPa West 17.9 km/h 17.9 km/h 84 % 0 mm 0.0 W/m2 CLR
02:04 -17.8 °C -19.1 °C 34625.2 hPa West 20.9 km/h 20.9 km/h 84 % 0 mm 0.0 W/m2 CLR
02:09 -17.8 °C -19.1 °C 34625.2 hPa West 23.8 km/h 23.8 km/h 84 % 0 mm 0.0 W/m2 CLR
02:15 -17.8 °C -19.1 °C 34625.2 hPa West 18.2 km/h 18.2 km/h 84 % 0 mm 0.0 W/m2 CLR
02:20 -17.8 °C -19.1 °C 34625.2 hPa West 11.9 km/h 11.9 km/h 84 % 0 mm 0.0 W/m2 CLR
02:25 -17.2 °C -18.5 °C 34611.7 hPa West 23.8 km/h 23.8 km/h 84 % 0 mm 0.0 W/m2 CLR
02:30 -17.2 °C -18.5 °C 34611.7 hPa WNW 11.9 km/h 11.9 km/h 84 % 0 mm 0.0 W/m2 CLR
02:35 -16.8 °C -18.1 °C 34611.7 hPa NW 32.8 km/h 32.8 km/h 85 % 0 mm 0.0 W/m2 CLR
02:40 -16.6 °C -17.9 °C 34611.7 hPa NW 17.9 km/h 17.9 km/h 84 % 0 mm 0.0 W/m2 CLR
02:45 -16.6 °C -18 °C 34611.7 hPa WNW 20.9 km/h 20.9 km/h 83 % 0 mm 0.0 W/m2 CLR
02:50 -15.9 °C -17.4 °C 34611.7 hPa WNW 20.9 km/h 20.9 km/h 82 % 0 mm 0.0 W/m2 CLR
02:55 -15.9 °C -17.4 °C 34611.7 hPa WNW 26.9 km/h 26.9 km/h 82 % 0 mm 0.0 W/m2 CLR
03:00 -15.6 °C -17.3 °C 34611.7 hPa NW 23.8 km/h 23.8 km/h 81 % 0 mm 0.0 W/m2 CLR
03:05 -15.6 °C -17.3 °C 34601.5 hPa WNW 26.9 km/h 26.9 km/h 81 % 0 mm 0.0 W/m2 CLR
03:10 -15.3 °C -17 °C 34601.5 hPa WNW 23.8 km/h 23.8 km/h 81 % 0 mm 0.0 W/m2 CLR
03:15 -15 °C -16.8 °C 34601.5 hPa WNW 20.9 km/h 20.9 km/h 80 % 0 mm 0.0 W/m2 CLR
03:20 -15 °C -16.8 °C 34611.7 hPa WNW 18.2 km/h 18.8 km/h 80 % 0 mm 0.0 W/m2 CLR
03:25 -15.3 °C -17.1 °C 34601.5 hPa NW 26.9 km/h 26.9 km/h 80 % 0 mm 0.0 W/m2 CLR
03:30 -15 °C -16.8 °C 34601.5 hPa NW 29.8 km/h 29.8 km/h 80 % 0 mm 0.0 W/m2 CLR
03:35 -15 °C -16.8 °C 34601.5 hPa NW 23.8 km/h 23.8 km/h 80 % 0 mm 0.0 W/m2 CLR
03:40 -14.7 °C -16.4 °C 34601.5 hPa NW 23.8 km/h 23.8 km/h 80 % 0 mm 0.0 W/m2 CLR
03:45 -14.7 °C -16.4 °C 34601.5 hPa WNW 31.1 km/h 31.1 km/h 80 % 0 mm 0.0 W/m2 CLR
03:50 -14.7 °C -16.6 °C 34601.5 hPa NW 23.8 km/h 23.8 km/h 79 % 0 mm 0.0 W/m2 CLR
03:55 -14.7 °C -16.6 °C 34601.5 hPa WNW 20.8 km/h 20.8 km/h 79 % 0 mm 0.0 W/m2 CLR
04:00 -14.7 °C -16.6 °C 34601.5 hPa WNW 9 km/h 9 km/h 79 % 0 mm 0.0 W/m2 CLR
04:05 -15 °C -16.8 °C 34601.5 hPa WNW 15 km/h 15 km/h 79 % 0 mm 0.0 W/m2 CLR
04:10 -15 °C -16.8 °C 34601.5 hPa Calm     79 % 0 mm 0.0 W/m2 CLR
04:15 -15 °C -16.8 °C 34601.5 hPa Calm     79 % 0 mm 0.0 W/m2 CLR
04:20 -15 °C -16.8 °C 34601.5 hPa WNW 15 km/h 15 km/h 79 % 0 mm 0.0 W/m2 CLR
04:25 -15.3 °C -17.2 °C 34591.4 hPa Calm     79 % 0 mm 0.0 W/m2 CLR
04:30 -15.3 °C -17.2 °C 34591.4 hPa West 9 km/h 9 km/h 79 % 0 mm 0.0 W/m2 CLR
04:35 -15.3 °C -17.2 °C 34591.4 hPa WNW 23.8 km/h 23.8 km/h 79 % 0 mm 0.0 W/m2 CLR
04:40 -15.3 °C -17.3 °C 34591.4 hPa WNW 20.9 km/h 20.9 km/h 78 % 0 mm 0.0 W/m2 CLR
04:45 -15 °C -16.9 °C 34591.4 hPa NW 20.9 km/h 20.9 km/h 78 % 0 mm 0.0 W/m2 CLR
04:50 -15 °C -16.9 °C 34577.8 hPa Calm     78 % 0 mm 0.0 W/m2 CLR
04:55 -15 °C -16.9 °C 34577.8 hPa WNW 23.8 km/h 23.8 km/h 78 % 0 mm 0.0 W/m2 CLR
05:00 -14.7 °C -16.7 °C 34577.8 hPa WNW 17.9 km/h 17.9 km/h 78 % 0 mm 0.0 W/m2 CLR
05:05 -14.7 °C -16.8 °C 34577.8 hPa WNW 20.9 km/h 20.9 km/h 77 % 0 mm 0.0 W/m2 CLR
05:10 -15 °C -17.1 °C 34577.8 hPa WNW 29.8 km/h 29.8 km/h 77 % 0 mm 0.0 W/m2 CLR
05:15 -15 °C -17.1 °C 34577.8 hPa NW 20.9 km/h 20.9 km/h 77 % 0 mm 0.0 W/m2 CLR
05:20 -15 °C -17.1 °C 34577.8 hPa WNW 3.1 km/h   77 % 0 mm 0.0 W/m2 CLR
05:25 -15.3 °C -17.3 °C 34577.8 hPa WNW 17.9 km/h 17.9 km/h 77 % 0 mm 0.0 W/m2 CLR
05:30 -15.3 °C -17.3 °C 34577.8 hPa NW 15.6 km/h 15.6 km/h 77 % 0 mm 0.0 W/m2 CLR
05:35 -15.3 °C -17.3 °C 34577.8 hPa NW 17.9 km/h 17.9 km/h 77 % 0 mm 0.0 W/m2 CLR
05:40 -15.3 °C -17.3 °C 34577.8 hPa NW 23.8 km/h 23.8 km/h 77 % 0 mm 0.0 W/m2 CLR
05:45 -15.3 °C -17.4 °C 34577.8 hPa WNW 23.8 km/h 23.8 km/h 76 % 0 mm 0.0 W/m2 CLR
05:50 -15 °C -17.2 °C 34577.8 hPa NW 23.8 km/h 23.8 km/h 76 % 0 mm 0.0 W/m2 CLR
05:55 -15 °C -17.2 °C 34577.8 hPa NW 20.9 km/h 20.9 km/h 76 % 0 mm 0.0 W/m2 CLR
06:00 -15 °C -17.2 °C 34577.8 hPa Calm     76 % 0 mm 0.0 W/m2 CLR
06:05 -15 °C -17.2 °C 34591.4 hPa Calm     76 % 0 mm 0.0 W/m2 CLR
06:10 -15 °C -17.2 °C 34591.4 hPa Calm     76 % 0 mm 0.0 W/m2 CLR
06:15 -15.3 °C -17.4 °C 34577.8 hPa Calm     76 % 0 mm 0.0 W/m2 CLR
06:20 -15.3 °C -17.4 °C 34577.8 hPa NW 6 km/h 6 km/h 76 % 0 mm 0.0 W/m2 CLR
06:25 -15.3 °C -17.3 °C 34577.8 hPa Calm     77 % 0 mm 0.0 W/m2 CLR
06:30 -15.3 °C -17.3 °C 34577.8 hPa Calm     77 % 0 mm 0.0 W/m2 CLR
06:35 -15.3 °C -17.3 °C 34577.8 hPa Calm     78 % 0 mm 0.0 W/m2 CLR
06:40 -15.3 °C -17.3 °C 34577.8 hPa Calm     77 % 0 mm 0.0 W/m2 CLR
06:45 -15 °C -17.1 °C 34577.8 hPa Calm     77 % 0 mm 0.0 W/m2 CLR
06:50 -15 °C -17.1 °C 34577.8 hPa Calm     77 % 0 mm 0.0 W/m2 CLR
06:55 -15 °C -16.9 °C 34577.8 hPa Calm     78 % 0 mm 0.0 W/m2 CLR
07:00 -15 °C -16.9 °C 34567.7 hPa Calm     78 % 0 mm 0.0 W/m2 CLR
07:05 -15.3 °C -17.3 °C 34567.7 hPa Calm     78 % 0 mm 0.0 W/m2 CLR
07:10 -15.3 °C -17.2 °C 34567.7 hPa Calm     79 % 0 mm 0.0 W/m2 CLR
07:15 -15.3 °C -17.2 °C 34567.7 hPa Calm     79 % 0 mm 0.0 W/m2 CLR
07:20 -15.3 °C -17.2 °C 34567.7 hPa West 3.1 km/h   79 % 0 mm 0.0 W/m2 CLR
07:25 -15.3 °C -17.2 °C 34567.7 hPa WNW 6 km/h 6 km/h 79 % 0 mm 0.0 W/m2 CLR
07:30 -15.3 °C -17.2 °C 34567.7 hPa West 9 km/h 9 km/h 79 % 0 mm 0.0 W/m2 CLR
07:35 -15.3 °C -17.3 °C 34567.7 hPa Calm     78 % 0 mm 0.0 W/m2 CLR
07:40 -15.3 °C -17.3 °C 34577.8 hPa Calm     77 % 0 mm 0.0 W/m2 CLR
07:45 -15.6 °C -17.7 °C 34577.8 hPa Calm     77 % 0 mm 0.0 W/m2 CLR
07:50 -15.3 °C -17.3 °C 34567.7 hPa Calm     77 % 0 mm 0.0 W/m2 OVC
07:55 -15.3 °C -17.3 °C 34577.8 hPa Calm     78 % 0 mm 0.0 W/m2 OVC
08:00 -15.3 °C -17.3 °C 34577.8 hPa Calm     78 % 0 mm 0.0 W/m2 OVC
08:07 -15.3 °C -17.3 °C 34577.8 hPa West 3.1 km/h   78 % 0 mm 5.0 W/m2 OVC
08:12 -15.3 °C -17.3 °C 34577.8 hPa Calm     78 % 0 mm 7.0 W/m2 BKN
08:17 -15.3 °C -17.3 °C 34567.7 hPa Calm     78 % 0 mm 11.0 W/m2 BKN
08:22 -15.3 °C -17.3 °C 34567.7 hPa Calm     78 % 0 mm 12.0 W/m2 BKN
08:27 -15 °C -16.9 °C 34567.7 hPa West 15 km/h 15 km/h 78 % 0 mm 14.0 W/m2 BKN
08:32 -15 °C -16.9 °C 34567.7 hPa West 9 km/h 9 km/h 78 % 0 mm 18.0 W/m2 BKN
08:37 -15 °C -16.9 °C 34567.7 hPa West 9 km/h 9 km/h 78 % 0 mm 23.0 W/m2 BKN
08:42 -14.7 °C -16.8 °C 34577.8 hPa WNW 6 km/h 6 km/h 77 % 0 mm 35.0 W/m2 BKN
08:47 -14.7 °C -16.8 °C 34577.8 hPa West 7.7 km/h 7.7 km/h 76 % 0 mm 40.0 W/m2 BKN
08:52 -14.7 °C -16.8 °C 34577.8 hPa West 12.9 km/h 12.9 km/h 76 % 0 mm 37.0 W/m2 BKN
08:57 -14.4 °C -16.6 °C 34577.8 hPa WNW 20.8 km/h 20.8 km/h 76 % 0 mm 33.0 W/m2 BKN
09:02 -14.1 °C -16.3 °C 34577.8 hPa WNW 9 km/h 9 km/h 75 % 0 mm 42.0 W/m2 BKN
09:07 -13.4 °C -15.8 °C 34591.4 hPa WNW 23.8 km/h 23.8 km/h 75 % 0 mm 49.0 W/m2 BKN
09:12 -13.4 °C -15.7 °C 34591.4 hPa WNW 32.8 km/h 32.8 km/h 76 % 0 mm 51.0 W/m2 SCT
09:17 -13.2 °C -15.4 °C 34577.8 hPa NW 26.9 km/h 26.9 km/h 76 % 0 mm 54.0 W/m2 SCT
09:22 -13.2 °C -15.4 °C 34577.8 hPa NW 35.7 km/h 35.7 km/h 76 % 0 mm 79.0 W/m2 SCT
09:27 -12.8 °C -15.1 °C 34577.8 hPa WNW 29.8 km/h 29.8 km/h 76 % 0 mm 70.0 W/m2 FEW
09:33 -12.8 °C -15.1 °C 34577.8 hPa WNW 23.8 km/h 23.8 km/h 76 % 0 mm 93.0 W/m2 FEW
09:38 -12.8 °C -14.9 °C 34577.8 hPa NW 29.8 km/h 29.8 km/h 77 % 0 mm 95.0 W/m2 CLR
09:43 -12.6 °C -14.7 °C 34577.8 hPa NW 23.8 km/h 23.8 km/h 77 % 0 mm 109.0 W/m2 CLR
09:48 -12.6 °C -14.7 °C 34577.8 hPa WNW 33.6 km/h 33.6 km/h 77 % 0 mm 135.0 W/m2 CLR
09:53 -12.6 °C -14.8 °C 34577.8 hPa WNW 29.8 km/h 29.8 km/h 76 % 0 mm 134.0 W/m2 CLR
09:58 -12.2 °C -14.3 °C 34591.4 hPa NW 29.8 km/h 29.8 km/h 77 % 0 mm 155.0 W/m2 CLR
10:03 -12.2 °C -14.5 °C 34591.4 hPa NW 29.8 km/h 29.8 km/h 76 % 0 mm 141.0 W/m2 CLR
10:08 -12.2 °C -14.3 °C 34591.4 hPa North 18.2 km/h 18.2 km/h 77 % 0 mm 120.0 W/m2 CLR
10:13 -11.9 °C -14.1 °C 34577.8 hPa NW 29.8 km/h 29.8 km/h 77 % 0 mm 197.0 W/m2 CLR
10:18 -11.9 °C -14.1 °C 34591.4 hPa NNW 38.8 km/h 38.8 km/h 77 % 0 mm 204.0 W/m2 CLR
10:23 -11.6 °C -13.8 °C 34591.4 hPa NW 44.1 km/h 44.1 km/h 76 % 0 mm 153.0 W/m2 CLR
10:28 -11.6 °C -14 °C 34591.4 hPa NW 29.8 km/h 29.8 km/h 75 % 0 mm 169.0 W/m2 CLR
10:33 -11.6 °C -14 °C 34577.8 hPa NW 35.7 km/h 35.7 km/h 75 % 0 mm 237.0 W/m2 CLR
10:38 -11.6 °C -14.1 °C 34577.8 hPa WNW 29.8 km/h 29.8 km/h 74 % 0 mm 172.0 W/m2 CLR
10:43 -11.6 °C -14.1 °C 34577.8 hPa NW 44.7 km/h 44.7 km/h 74 % 0 mm 185.0 W/m2 CLR
10:48 -11.3 °C -13.8 °C 34577.8 hPa NW 53.6 km/h 53.6 km/h 74 % 0 mm 221.0 W/m2 CLR
10:53 -11.3 °C -13.8 °C 34577.8 hPa NNW 35.7 km/h 35.7 km/h 74 % 0 mm 216.0 W/m2 CLR
10:58 -11.3 °C -13.8 °C 34577.8 hPa NNW 32.8 km/h 32.8 km/h 74 % 0 mm 216.0 W/m2 CLR
11:03 -11.3 °C -13.9 °C 34591.4 hPa NW 38.8 km/h 38.8 km/h 73 % 0 mm 237.0 W/m2 CLR
11:08 -11 °C -13.7 °C 34591.4 hPa NNW 50.7 km/h 50.7 km/h 72 % 0 mm 258.0 W/m2 CLR
11:13 -11 °C -13.6 °C 34577.8 hPa NNW 41.4 km/h 41.4 km/h 73 % 0 mm 193.0 W/m2 CLR
11:18 -10.7 °C -13.4 °C 34577.8 hPa NNW 38.8 km/h 38.8 km/h 72 % 0 mm 482.0 W/m2 CLR
11:23 -10.7 °C -13.4 °C 34577.8 hPa NNW 44.7 km/h 44.7 km/h 72 % 0 mm 547.0 W/m2 CLR
11:28 -10.7 °C -13.4 °C 34577.8 hPa NW 38.8 km/h 38.8 km/h 72 % 0 mm 547.0 W/m2 CLR
11:33 -10.4 °C -13.2 °C 34577.8 hPa NW 44.7 km/h 44.7 km/h 71 % 0 mm 223.0 W/m2 CLR
11:38 -10.4 °C -13.2 °C 34577.8 hPa NW 41.7 km/h 41.7 km/h 71 % 0 mm 251.0 W/m2 CLR
11:43 -10.4 °C -13.3 °C 34577.8 hPa North 50.7 km/h 50.7 km/h 70 % 0 mm 320.0 W/m2 CLR
11:48 -10.4 °C -13.3 °C 34577.8 hPa NW 32.8 km/h 32.8 km/h 70 % 0 mm 248.0 W/m2 CLR
11:53 -10.4 °C -13.4 °C 34577.8 hPa WNW 44.7 km/h 44.7 km/h 69 % 0 mm 197.0 W/m2 CLR
11:58 -10.4 °C -13.6 °C 34577.8 hPa NNW 59.5 km/h 59.5 km/h 68 % 0 mm 768.0 W/m2 CLR
12:03 -10.1 °C -13.4 °C 34577.8 hPa NW 56.6 km/h 56.6 km/h 67 % 0 mm 302.0 W/m2 CLR
12:08 -10.1 °C -13.2 °C 34577.8 hPa North 35.7 km/h 35.7 km/h 69 % 0 mm 536.0 W/m2 CLR
12:13 -10.1 °C -13.4 °C 34577.8 hPa North 50.7 km/h 50.7 km/h 67 % 0 mm 696.0 W/m2 CLR
12:18 -9.8 °C -13 °C 34567.7 hPa NW 41.7 km/h 41.7 km/h 68 % 0 mm 703.0 W/m2 CLR
12:23 -9.4 °C -12.9 °C 34567.7 hPa NNW 56.6 km/h 56.6 km/h 66 % 0 mm 728.0 W/m2 CLR
12:28 -9.4 °C -12.8 °C 34567.7 hPa NNW 38.8 km/h 38.8 km/h 67 % 0 mm 759.0 W/m2 CLR
12:33 -9.4 °C -12.9 °C 34567.7 hPa NNW 44.7 km/h 44.7 km/h 66 % 0 mm 341.0 W/m2 CLR
12:38 -9.1 °C -12.8 °C 34567.7 hPa NW 54.4 km/h 54.4 km/h 65 % 0 mm 714.0 W/m2 CLR
12:43 -9.4 °C -12.9 °C 34554.1 hPa WNW 50.7 km/h 50.7 km/h 66 % 0 mm 694.0 W/m2 CLR
12:48 -9.1 °C -12.8 °C 34554.1 hPa NW 35.7 km/h 35.7 km/h 65 % 0 mm 668.0 W/m2 CLR
12:53 -9.1 °C -12.8 °C 34554.1 hPa NW 47.6 km/h 47.6 km/h 65 % 0 mm 216.0 W/m2 CLR
12:58 -9.4 °C -13.1 °C 34554.1 hPa NW 32.8 km/h 32.8 km/h 65 % 0 mm 693.0 W/m2 CLR
13:03 -9.1 °C -12.9 °C 34544 hPa NW 47.6 km/h 47.6 km/h 64 % 0 mm 659.0 W/m2 CLR
13:08 -8.8 °C -12.6 °C 34544 hPa NW 47.6 km/h 47.6 km/h 64 % 0 mm 619.0 W/m2 CLR
13:13 -8.8 °C -12.7 °C 34533.8 hPa NW 50.7 km/h 50.7 km/h 63 % 0 mm 619.0 W/m2 CLR
13:14 -8.8 °C -12.7 °C 34533.8 hPa NNW 50.7 km/h 50.7 km/h 63 % 0 mm 615.0 W/m2 CLR
13:19 -8.5 °C -12.4 °C 34533.8 hPa NNW 56.6 km/h 56.6 km/h 63 % 0 mm 624.0 W/m2 CLR
13:24 -8.8 °C -12.7 °C 34533.8 hPa NNW 41.7 km/h 41.7 km/h 63 % 0 mm 645.0 W/m2 CLR
13:29 -8.5 °C -12.4 °C 34533.8 hPa North 50.7 km/h 50.7 km/h 63 % 0 mm 721.0 W/m2 CLR
13:34 -8.2 °C -12.3 °C 34520.3 hPa WNW 32.8 km/h 32.8 km/h 62 % 0 mm 701.0 W/m2 CLR
13:39 -8.2 °C -12.6 °C 34533.8 hPa North 50.7 km/h 50.7 km/h 60 % 0 mm 163.0 W/m2 CLR
13:44 -8.5 °C -12.7 °C 34520.3 hPa NW 35.7 km/h 35.7 km/h 61 % 0 mm 244.0 W/m2 CLR
13:49 -8.5 °C -12.7 °C 34520.3 hPa North 46.7 km/h 46.7 km/h 61 % 0 mm 134.0 W/m2 CLR
13:54 -8.8 °C -12.9 °C 34520.3 hPa NNW 59.5 km/h 59.5 km/h 62 % 0 mm 677.0 W/m2 CLR
13:59 -8.2 °C -12.3 °C 34520.3 hPa NNW 53.6 km/h 56.5 km/h 62 % 0 mm 664.0 W/m2 CLR
14:04 -8.2 °C -12.4 °C 34520.3 hPa NNE 59.5 km/h 59.5 km/h 61 % 0 mm 677.0 W/m2 CLR
14:09 -8.5 °C -12.7 °C 34520.3 hPa North 57 km/h 57 km/h 61 % 0 mm 703.0 W/m2 CLR
14:14 -8.2 °C -12.4 °C 34520.3 hPa NNW 65.5 km/h 65.5 km/h 61 % 0 mm 271.0 W/m2 CLR
14:19 -8.2 °C -12.3 °C 34520.3 hPa NNW 54.4 km/h 54.4 km/h 62 % 0 mm 796.0 W/m2 CLR
14:24 -8.2 °C -12.6 °C 34510.1 hPa NNW 46.7 km/h 46.7 km/h 60 % 0 mm 378.0 W/m2 CLR
14:29 -8.8 °C -13 °C 34510.1 hPa NNW 56.6 km/h 56.6 km/h 61 % 0 mm 294.0 W/m2 CLR
14:34 -8.5 °C -12.7 °C 34510.1 hPa NNW 50.7 km/h 50.7 km/h 61 % 0 mm 294.0 W/m2 CLR
14:39 -8.2 °C -12.4 °C 34510.1 hPa North 51.8 km/h 51.8 km/h 61 % 0 mm 236.0 W/m2 CLR
14:45 -8.5 °C -12.7 °C 34496.6 hPa NNW 50.7 km/h 50.7 km/h 61 % 0 mm 186.0 W/m2 CLR
14:49 -8.5 °C -12.7 °C 34496.6 hPa North 51.8 km/h 51.8 km/h 61 % 0 mm 554.0 W/m2 CLR
14:55 -8.2 °C -12.7 °C 34496.6 hPa NNW 51.8 km/h 51.8 km/h 59 % 0 mm 538.0 W/m2 CLR
15:00 -8.2 °C -12.7 °C 34496.6 hPa NW 44.7 km/h 44.7 km/h 59 % 0 mm 287.0 W/m2 CLR
15:05 -8.2 °C -12.7 °C 34496.6 hPa NNW 50.7 km/h 50.7 km/h 59 % 0 mm 608.0 W/m2 CLR
15:10 -8.5 °C -13 °C 34496.6 hPa North 53.6 km/h 53.6 km/h 59 % 0 mm 185.0 W/m2 CLR
15:15 -8.8 °C -13.2 °C 34496.6 hPa North 38.8 km/h 38.8 km/h 60 % 0 mm 135.0 W/m2 CLR
15:20 -8.8 °C -13.2 °C 34496.6 hPa NW 38.8 km/h 38.8 km/h 60 % 0 mm 107.0 W/m2 CLR
15:25 -9.1 °C -13.4 °C 34496.6 hPa NNW 50.7 km/h 50.7 km/h 60 % 0 mm 114.0 W/m2 CLR
15:30 -9.1 °C -13.4 °C 34496.6 hPa NNW 44.1 km/h 44.1 km/h 60 % 0 mm 146.0 W/m2 CLR
15:35 -9.1 °C -13.4 °C 34496.6 hPa NW 50.7 km/h 50.7 km/h 60 % 0 mm 214.0 W/m2 CLR
15:40 -8.8 °C -13.2 °C 34486.4 hPa NW 41.7 km/h 41.7 km/h 60 % 0 mm 606.0 W/m2 CLR
15:45 -8.2 °C -12.8 °C 34486.4 hPa NW 47.6 km/h 47.6 km/h 58 % 0 mm 288.0 W/m2 CLR
15:50 -8.5 °C -13.2 °C 34496.6 hPa NW 38.8 km/h 38.8 km/h 58 % 0 mm 200.0 W/m2 CLR
15:55 -8.8 °C -13.4 °C 34496.6 hPa NNW 56.6 km/h 56.6 km/h 58 % 0 mm 178.0 W/m2 CLR
16:00 -8.8 °C -13.3 °C 34496.6 hPa North 38.8 km/h 38.8 km/h 59 % 0 mm 162.0 W/m2 CLR
16:05 -8.8 °C -13.3 °C 34496.6 hPa North 50.7 km/h 50.7 km/h 59 % 0 mm 135.0 W/m2 CLR
16:10 -8.8 °C -13.4 °C 34496.6 hPa NNW 41.7 km/h 41.7 km/h 58 % 0 mm 139.0 W/m2 CLR
16:15 -9.1 °C -13.6 °C 34496.6 hPa NNW 44.7 km/h 44.7 km/h 59 % 0 mm 174.0 W/m2 CLR
16:20 -9.1 °C -13.4 °C 34486.4 hPa NNW 49.2 km/h 49.2 km/h 60 % 0 mm 359.0 W/m2 CLR
16:25 -8.8 °C -13.6 °C 34496.6 hPa NNW 59.5 km/h 59.5 km/h 57 % 0 mm 292.0 W/m2 CLR
16:30 -8.8 °C -13.6 °C 34496.6 hPa NNW 51.8 km/h 51.8 km/h 57 % 0 mm 151.0 W/m2 CLR
16:35 -9.1 °C -13.7 °C 34496.6 hPa North 38.8 km/h 38.8 km/h 58 % 0 mm 148.0 W/m2 CLR
16:40 -9.1 °C -13.6 °C 34486.4 hPa NW 32.8 km/h 32.8 km/h 59 % 0 mm 167.0 W/m2 CLR
16:45 -9.1 °C -13.6 °C 34496.6 hPa NW 35.7 km/h 35.7 km/h 59 % 0 mm 127.0 W/m2 CLR
16:50 -9.1 °C -13.6 °C 34486.4 hPa NNW 50.7 km/h 50.7 km/h 59 % 0 mm 105.0 W/m2 CLR
16:55 -9.1 °C -13.6 °C 34496.6 hPa NW 23.8 km/h 23.8 km/h 59 % 0 mm 107.0 W/m2 CLR
17:00 -9.1 °C -13.6 °C 34486.4 hPa NW 47.6 km/h 47.6 km/h 59 % 0 mm 100.0 W/m2 CLR
17:05 -9.4 °C -13.8 °C 34496.6 hPa NNW 29.8 km/h 29.8 km/h 59 % 0 mm 83.0 W/m2 CLR
17:10 -9.4 °C -13.8 °C 34496.6 hPa NNW 53.6 km/h 53.6 km/h 59 % 0 mm 46.0 W/m2 FEW
17:15 -9.4 °C -13.8 °C 34496.6 hPa NNW 41.7 km/h 41.7 km/h 59 % 0 mm 63.0 W/m2 SCT
17:20 -9.8 °C -14 °C 34496.6 hPa NW 35.7 km/h 35.7 km/h 60 % 0 mm 60.0 W/m2 SCT
17:25 -9.8 °C -14 °C 34496.6 hPa NW 38.8 km/h 38.8 km/h 60 % 0 mm 56.0 W/m2 SCT
17:30 -9.8 °C -14 °C 34496.6 hPa NNW 38.8 km/h 38.8 km/h 60 % 0 mm 54.0 W/m2 SCT
17:35 -9.8 °C -14 °C 34496.6 hPa NW 38.8 km/h 38.8 km/h 60 % 0 mm 32.0 W/m2 BKN
17:40 -9.8 °C -14 °C 34496.6 hPa NNW 38.8 km/h 38.8 km/h 60 % 0 mm 23.0 W/m2 BKN
17:45 -10.1 °C -14.2 °C 34510.1 hPa North 29.8 km/h 29.8 km/h 61 % 0 mm 21.0 W/m2 BKN
17:50 -10.1 °C -14.2 °C 34510.1 hPa NNW 54.4 km/h 54.4 km/h 61 % 0 mm 23.0 W/m2 BKN
17:55 -10.1 °C -14.2 °C 34510.1 hPa NW 44.7 km/h 44.7 km/h 61 % 0 mm 23.0 W/m2 BKN
18:00 -10.4 °C -14.2 °C 34510.1 hPa NNW 53.6 km/h 53.6 km/h 63 % 0 mm 21.0 W/m2 BKN
18:05 -10.4 °C -14.2 °C 34510.1 hPa NW 38.8 km/h 38.8 km/h 63 % 0 mm 18.0 W/m2 BKN
18:10 -10.4 °C -14.1 °C 34510.1 hPa NW 41.7 km/h 41.7 km/h 64 % 0 mm 12.0 W/m2 BKN
18:15 -10.7 °C -14.4 °C 34520.3 hPa WNW 29.8 km/h 29.8 km/h 64 % 0 mm 7.0 W/m2 BKN
18:20 -10.7 °C -14.3 °C 34520.3 hPa NW 50.7 km/h 50.7 km/h 65 % 0 mm 5.0 W/m2 OVC
18:25 -10.7 °C -14.1 °C 34520.3 hPa NW 35.7 km/h 35.7 km/h 66 % 0 mm 0.0 W/m2 OVC
18:30 -10.7 °C -14.1 °C 34533.8 hPa NW 32.8 km/h 32.8 km/h 66 % 0 mm 0.0 W/m2 OVC
18:35 -10.7 °C -14.1 °C 34533.8 hPa NW 38.8 km/h 38.8 km/h 66 % 0 mm 0.0 W/m2 OVC
18:40 -10.7 °C -14.1 °C 34533.8 hPa NW 29.8 km/h 29.8 km/h 66 % 0 mm 0.0 W/m2 CLR
18:45 -10.7 °C -14.1 °C 34533.8 hPa NW 50.7 km/h 50.7 km/h 66 % 0 mm 0.0 W/m2 CLR
18:50 -10.7 °C -14.1 °C 34533.8 hPa WNW 38.8 km/h 38.8 km/h 66 % 0 mm 0.0 W/m2 CLR
18:55 -10.7 °C -14.1 °C 34533.8 hPa WNW 36.2 km/h 36.2 km/h 66 % 0 mm 0.0 W/m2 CLR
19:00 -10.7 °C -14.1 °C 34533.8 hPa NW 38.8 km/h 38.8 km/h 66 % 0 mm 0.0 W/m2 CLR
19:05 -11 °C -14.4 °C 34533.8 hPa NW 38.8 km/h 38.8 km/h 66 % 0 mm 0.0 W/m2 CLR
19:10 -11 °C -14.4 °C 34533.8 hPa NW 35.7 km/h 35.7 km/h 66 % 0 mm 0.0 W/m2 CLR
19:15 -11 °C -14.4 °C 34533.8 hPa WNW 38.8 km/h 38.8 km/h 66 % 0 mm 0.0 W/m2 CLR
19:20 -11 °C -14.4 °C 34533.8 hPa NW 32.8 km/h 32.8 km/h 66 % 0 mm 0.0 W/m2 CLR
19:25 -11 °C -14.4 °C 34533.8 hPa WNW 35.7 km/h 35.7 km/h 66 % 0 mm 0.0 W/m2 CLR
19:30 -11 °C -14.3 °C 34520.3 hPa NW 38.8 km/h 38.8 km/h 67 % 0 mm 0.0 W/m2 CLR
19:35 -11 °C -14.4 °C 34533.8 hPa WNW 36.2 km/h 36.2 km/h 66 % 0 mm 0.0 W/m2 CLR
19:40 -11 °C -14.4 °C 34533.8 hPa NW 38.8 km/h 38.8 km/h 66 % 0 mm 0.0 W/m2 CLR
19:45 -11 °C -14.4 °C 34533.8 hPa NW 29.8 km/h 29.8 km/h 66 % 0 mm 0.0 W/m2 CLR
19:50 -11.3 °C -14.6 °C 34520.3 hPa WNW 25.9 km/h 25.9 km/h 67 % 0 mm 0.0 W/m2 CLR
19:55 -11.3 °C -14.6 °C 34520.3 hPa West 26.9 km/h 26.9 km/h 67 % 0 mm 0.0 W/m2 CLR
20:00 -11.3 °C -14.5 °C 34510.1 hPa West 32.8 km/h 32.8 km/h 68 % 0 mm 0.0 W/m2 CLR
20:05 -11.3 °C -14.3 °C 34510.1 hPa West 23.3 km/h 23.3 km/h 69 % 0 mm 0.0 W/m2 CLR
20:10 -11.6 °C -14.7 °C 34510.1 hPa NW 29.8 km/h 29.8 km/h 69 % 0 mm 0.0 W/m2 CLR
20:15 -11.6 °C -14.7 °C 34510.1 hPa WNW 20.9 km/h 20.9 km/h 69 % 0 mm 0.0 W/m2 CLR
20:20 -11.6 °C -14.6 °C 34510.1 hPa NW 23.8 km/h 23.8 km/h 70 % 0 mm 0.0 W/m2 CLR
20:25 -11.6 °C -14.6 °C 34510.1 hPa Calm     70 % 0 mm 0.0 W/m2 CLR
20:30 -11.6 °C -14.4 °C 34510.1 hPa Calm     71 % 0 mm 0.0 W/m2 CLR
20:35 -11.9 °C -14.7 °C 34510.1 hPa NW 20.9 km/h 20.9 km/h 71 % 0 mm 0.0 W/m2 CLR
20:40 -11.9 °C -14.8 °C 34496.6 hPa NW 29.8 km/h 29.8 km/h 70 % 0 mm 0.0 W/m2 CLR
20:45 -11.9 °C -14.8 °C 34496.6 hPa NW 23.8 km/h 23.8 km/h 70 % 0 mm 0.0 W/m2 CLR
20:50 -11.9 °C -14.8 °C 34510.1 hPa NW 26.9 km/h 26.9 km/h 70 % 0 mm 0.0 W/m2 CLR
20:55 -11.6 °C -14.6 °C 34520.3 hPa NW 20.9 km/h 20.9 km/h 70 % 0 mm 0.0 W/m2 CLR
20:57 -11.6 °C -14.6 °C 34520.3 hPa NW 17.9 km/h 17.9 km/h 70 % 0 mm 0.0 W/m2 CLR
21:02 -11.6 °C -14.4 °C 34520.3 hPa NW 17.9 km/h 17.9 km/h 71 % 0 mm 0.0 W/m2 CLR
21:07 -11.6 °C -14.4 °C 34520.3 hPa NW 23.8 km/h 23.8 km/h 71 % 0 mm 0.0 W/m2 CLR
21:12 -11.6 °C -14.3 °C 34520.3 hPa NW 17.9 km/h 17.9 km/h 72 % 0 mm 0.0 W/m2 CLR
21:17 -11.6 °C -14.2 °C 34520.3 hPa NW 17.9 km/h 17.9 km/h 73 % 0 mm 0.0 W/m2 CLR
21:22 -11.6 °C -14.2 °C 34520.3 hPa NNW 20.8 km/h 20.8 km/h 73 % 0 mm 0.0 W/m2 CLR
21:27 -11.9 °C -14.5 °C 34520.3 hPa NW 17.9 km/h 17.9 km/h 73 % 0 mm 0.0 W/m2 CLR
21:32 -11.9 °C -14.5 °C 34510.1 hPa NW 15 km/h 15 km/h 73 % 0 mm 0.0 W/m2 CLR
21:37 -11.9 °C -14.5 °C 34520.3 hPa NW 17.9 km/h 17.9 km/h 73 % 0 mm 0.0 W/m2 CLR
21:42 -11.9 °C -14.5 °C 34520.3 hPa NW 20.9 km/h 20.9 km/h 73 % 0 mm 0.0 W/m2 CLR
21:47 -11.9 °C -14.5 °C 34520.3 hPa NW 20.9 km/h 20.9 km/h 73 % 0 mm 0.0 W/m2 CLR
21:52 -11.9 °C -14.5 °C 34520.3 hPa NW 20.9 km/h 20.9 km/h 73 % 0 mm 0.0 W/m2 CLR
21:57 -11.9 °C -14.5 °C 34520.3 hPa NW 20.9 km/h 20.9 km/h 73 % 0 mm 0.0 W/m2 CLR
22:03 -12.2 °C -14.9 °C 34520.3 hPa NW 23.8 km/h 23.8 km/h 72 % 0 mm 0.0 W/m2 CLR
22:08 -11.9 °C -14.5 °C 34520.3 hPa NW 20.9 km/h 20.9 km/h 73 % 0 mm 0.0 W/m2 CLR
22:13 -11.9 °C -14.5 °C 34520.3 hPa NW 31.1 km/h 31.1 km/h 73 % 0 mm 0.0 W/m2 CLR
22:18 -11.6 °C -14.2 °C 34533.8 hPa NW 29.8 km/h 29.8 km/h 73 % 0 mm 0.0 W/m2 CLR
22:23 -11.6 °C -14.2 °C 34533.8 hPa NW 26.9 km/h 26.9 km/h 73 % 0 mm 0.0 W/m2 CLR
22:28 -11.9 °C -14.5 °C 34533.8 hPa NW 26.9 km/h 26.9 km/h 73 % 0 mm 0.0 W/m2 CLR
22:33 -11.9 °C -14.4 °C 34533.8 hPa NNW 26.9 km/h 26.9 km/h 74 % 0 mm 0.0 W/m2 CLR
22:38 -11.9 °C -14.4 °C 34533.8 hPa NW 35.7 km/h 35.7 km/h 74 % 0 mm 0.0 W/m2 CLR
22:43 -11.9 °C -14.4 °C 34533.8 hPa NW 35.7 km/h 35.7 km/h 74 % 0 mm 0.0 W/m2 CLR
22:48 -11.9 °C -14.3 °C 34533.8 hPa NW 38.8 km/h 38.8 km/h 75 % 0 mm 0.0 W/m2 CLR
22:53 -11.9 °C -14.3 °C 34533.8 hPa NNW 44.7 km/h 44.7 km/h 75 % 0 mm 0.0 W/m2 CLR
22:58 -11.9 °C -14.1 °C 34533.8 hPa NNW 50.7 km/h 50.7 km/h 77 % 0 mm 0.0 W/m2 CLR
23:03 -11.9 °C -13.9 °C 34533.8 hPa NNW 47.6 km/h 47.6 km/h 78 % 0 mm 0.0 W/m2 CLR
23:08 -11.9 °C -13.9 °C 34533.8 hPa NW 38.8 km/h 38.8 km/h 78 % 0 mm 0.0 W/m2 CLR
23:13 -11.9 °C -13.9 °C 34533.8 hPa NNW 29.8 km/h 29.8 km/h 78 % 0 mm 0.0 W/m2 CLR
23:18 -11.9 °C -13.8 °C 34533.8 hPa NNW 53.6 km/h 53.6 km/h 79 % 0 mm 0.0 W/m2 CLR
23:23 -11.9 °C -13.8 °C 34533.8 hPa NW 49.2 km/h 49.2 km/h 79 % 0 mm 0.0 W/m2 CLR
23:28 -11.9 °C -13.8 °C 34533.8 hPa NNW 53.6 km/h 53.6 km/h 79 % 0 mm 0.0 W/m2 CLR
23:33 -11.9 °C -13.8 °C 34533.8 hPa North 50.7 km/h 50.7 km/h 80 % 0 mm 0.0 W/m2 CLR
23:38 -11.9 °C -13.8 °C 34533.8 hPa NNW 49.2 km/h 49.2 km/h 80 % 0 mm 0.0 W/m2 CLR
23:43 -11.9 °C -13.8 °C 34533.8 hPa NW 44.7 km/h 44.7 km/h 80 % 0 mm 0.0 W/m2 CLR
23:48 -12.2 °C -14.1 °C 34533.8 hPa NNW 50.7 km/h 50.7 km/h 80 % 0 mm 0.0 W/m2 CLR
23:53 -12.2 °C -14.1 °C 34533.8 hPa NNW 62.6 km/h 62.6 km/h 80 % 0 mm 0.0 W/m2 CLR
23:58 -12.2 °C -14.1 °C 34533.8 hPa NNW 53.6 km/h 53.6 km/h 80 % 0 mm 0.0 W/m2 CLR
Lo Temps de Massalio
Compliments of Weather Underground - 1.25 mb